| time (UTC) | temp F | wind direction | speed MPH | gust MPH | rain 1hr in | rain 24hr in | rain mn in | humidity % | barometer mb |
| 20260906230100 | 67 | 0 | 0.0 | 10.0 | 0.00 | 0.00 | 0.00 | 37 | 1030.2 |
| 20260906224552 | 68 | 221 | 2.0 | 14.0 | 0.00 | 0.00 | 0.00 | 37 | 1030.3 |
| 20260906223050 | 68 | 360 | 4.0 | 12.0 | 0.00 | 0.00 | 0.00 | 38 | 1030.2 |
| 20260906221602 | 66 | 229 | 1.0 | 12.0 | 0.00 | 0.00 | 0.00 | 39 | 1030.3 |
| 20260906220056 | 67 | 199 | 0.0 | 10.0 | 0.00 | 0.00 | 0.00 | 38 | 1030.5 |
| 20260906214602 | 67 | 360 | 0.0 | 12.0 | 0.00 | 0.00 | 0.00 | 37 | 1030.8 |
| 20260906213059 | 67 | 360 | 2.0 | 11.0 | 0.00 | 0.00 | 0.00 | 36 | 1030.9 |
| 20260906211557 | 69 | 360 | 2.0 | 14.0 | 0.00 | 0.00 | 0.00 | 34 | 1030.9 |
| 20260906210055 | 70 | 360 | 4.0 | 13.0 | 0.00 | 0.00 | 0.00 | 31 | 1031.0 |
| 20260906204546 | 70 | 360 | 3.0 | 11.0 | 0.00 | 0.00 | 0.00 | 32 | 1031.4 |
| 20260906203102 | 67 | 0 | 1.0 | 15.0 | 0.00 | 0.00 | 0.00 | 35 | 1031.3 |
| 20260906201557 | 68 | 0 | 2.0 | 16.0 | 0.00 | 0.00 | 0.00 | 33 | 1031.6 |
| 20260906200106 | 68 | 0 | 4.0 | 13.0 | 0.00 | 0.00 | 0.00 | 34 | 1031.7 |
| 20260906194553 | 68 | 0 | 4.0 | 15.0 | 0.00 | 0.00 | 0.00 | 35 | 1031.7 |
| 20260906193049 | 69 | 0 | 0.0 | 12.0 | 0.00 | 0.00 | 0.00 | 34 | 1031.7 |
| 20260906191548 | 68 | 218 | 1.0 | 10.0 | 0.00 | 0.00 | 0.00 | 33 | 1031.9 |
| 20260906190104 | 71 | 0 | 0.0 | 9.0 | 0.00 | 0.00 | 0.00 | 30 | 1032.0 |
| 20260906184619 | 72 | 172 | 2.0 | 11.0 | 0.00 | 0.00 | 0.00 | 31 | 1032.1 |
| 20260906183052 | 72 | 0 | 2.0 | 9.0 | 0.00 | 0.00 | 0.00 | 31 | 1032.5 |
| 20260906181552 | 71 | 310 | 0.0 | 6.0 | 0.00 | 0.00 | 0.00 | 30 | 1032.4 |
| 20260906180056 | 70 | 360 | 1.0 | 9.0 | 0.00 | 0.00 | 0.00 | 31 | 1032.5 |
| 20260906174552 | 71 | 0 | 1.0 | 12.0 | 0.00 | 0.00 | 0.00 | 31 | 1032.5 |
| 20260906173055 | 72 | 0 | 0.0 | 10.0 | 0.00 | 0.00 | 0.00 | 30 | 1032.7 |
| 20260906171602 | 71 | 360 | 0.0 | 5.0 | 0.00 | 0.00 | 0.00 | 29 | 1032.7 |
| 20260906170054 | 70 | 0 | 0.0 | 8.0 | 0.00 | 0.00 | 0.00 | 28 | 1032.9 |
| 20260906164551 | 69 | 0 | 1.0 | 9.0 | 0.00 | 0.00 | 0.00 | 29 | 1032.6 |
| 20260906163048 | 67 | 360 | 0.0 | 4.0 | 0.00 | 0.00 | 0.00 | 30 | 1032.5 |
| 20260906161557 | 67 | 150 | 0.0 | 8.0 | 0.00 | 0.00 | 0.00 | 30 | 1032.5 |
| 20260906160058 | 66 | 197 | 2.0 | 8.0 | 0.00 | 0.00 | 0.00 | 28 | 1032.6 |
| 20260906154551 | 65 | 0 | 0.0 | 9.0 | 0.00 | 0.00 | 0.00 | 28 | 1032.4 |
| 20260906153047 | 66 | 0 | 2.0 | 8.0 | 0.00 | 0.00 | 0.00 | 28 | 1032.3 |
| 20260906151556 | 65 | 0 | 1.0 | 8.0 | 0.00 | 0.00 | 0.00 | 28 | 1032.3 |
| 20260906150056 | 64 | 0 | 1.0 | 8.0 | 0.00 | 0.00 | 0.00 | 31 | 1032.1 |
| 20260906144550 | 61 | 0 | 2.0 | 10.0 | 0.00 | 0.00 | 0.00 | 34 | 1032.0 |
| 20260906143059 | 58 | 360 | 0.0 | 8.0 | 0.00 | 0.00 | 0.00 | 37 | 1032.3 |
| 20260906141555 | 54 | 0 | 0.0 | 5.0 | 0.00 | 0.00 | 0.00 | 42 | 1032.3 |
| 20260906140053 | 55 | 0 | 0.0 | 4.0 | 0.00 | 0.00 | 0.00 | 42 | 1032.0 |
| 20260906134613 | 53 | 0 | 0.0 | 2.0 | 0.00 | 0.00 | 0.00 | 43 | 1032.1 |
| 20260906133055 | 52 | 0 | 0.0 | 1.0 | 0.00 | 0.00 | 0.00 | 46 | 1032.0 |
| 20260906131559 | 52 | 0 | 0.0 | 0.0 | 0.00 | 0.00 | 0.00 | 44 | 1032.0 |
| 20260906130146 | 52 | 0 | 0.0 | 0.0 | 0.00 | 0.00 | 0.00 | 41 | 1031.7 |
| 20260906124608 | 52 | 0 | 0.0 | 0.0 | 0.00 | 0.00 | 0.00 | 44 | 1031.7 |
| 20260906123053 | 52 | 0 | 0.0 | 0.0 | 0.00 | 0.00 | 0.00 | 43 | 1031.6 |
| 20260906121603 | 51 | 0 | 0.0 | 0.0 | 0.00 | 0.00 | 0.00 | 46 | 1031.5 |
| 20260906120111 | 51 | 0 | 0.0 | 0.0 | 0.00 | 0.00 | 0.00 | 44 | 1031.7 |
| 20260906114554 | 50 | 0 | 0.0 | 0.0 | 0.00 | 0.00 | 0.00 | 45 | 1031.5 |
| 20260906113056 | 51 | 0 | 0.0 | 0.0 | 0.00 | 0.00 | 0.00 | 44 | 1031.6 |
| 20260906111551 | 52 | 0 | 0.0 | 0.0 | 0.00 | 0.00 | 0.00 | 44 | 1031.4 |
| 20260906110059 | 52 | 0 | 0.0 | 0.0 | 0.00 | 0.00 | 0.00 | 42 | 1031.3 |
| 20260906104556 | 52 | 0 | 0.0 | 0.0 | 0.00 | 0.00 | 0.00 | 41 | 1031.2 |
| 20260906103057 | 52 | 0 | 0.0 | 2.0 | 0.00 | 0.00 | 0.00 | 44 | 1031.3 |
| 20260906101549 | 52 | 0 | 0.0 | 0.0 | 0.00 | 0.00 | 0.00 | 45 | 1031.2 |
| 20260906100046 | 51 | 0 | 0.0 | 0.0 | 0.00 | 0.00 | 0.00 | 45 | 1031.2 |
| 20260906094556 | 51 | 0 | 0.0 | 0.0 | 0.00 | 0.00 | 0.00 | 46 | 1031.5 |
| 20260906093055 | 50 | 0 | 0.0 | 0.0 | 0.00 | 0.00 | 0.00 | 50 | 1031.7 |
| 20260906091559 | 50 | 0 | 0.0 | 0.0 | 0.00 | 0.00 | 0.00 | 51 | 1031.6 |
| 20260906090055 | 51 | 0 | 0.0 | 0.0 | 0.00 | 0.00 | 0.00 | 52 | 1031.6 |
| 20260906084549 | 51 | 0 | 0.0 | 0.0 | 0.00 | 0.00 | 0.00 | 52 | 1031.7 |
| 20260906083052 | 51 | 0 | 0.0 | 0.0 | 0.00 | 0.00 | 0.00 | 50 | 1031.8 |
| 20260906081550 | 51 | 0 | 0.0 | 0.0 | 0.00 | 0.00 | 0.00 | 52 | 1031.9 |
| 20260906080057 | 51 | 0 | 0.0 | 0.0 | 0.00 | 0.00 | 0.00 | 49 | 1031.8 |
| 20260906074553 | 51 | 0 | 0.0 | 0.0 | 0.00 | 0.00 | 0.00 | 50 | 1032.0 |
| 20260906073051 | 51 | 0 | 0.0 | 0.0 | 0.00 | 0.00 | 0.00 | 52 | 1032.0 |
| 20260906071547 | 50 | 0 | 0.0 | 0.0 | 0.00 | 0.00 | 0.00 | 53 | 1032.1 |
| 20260906070058 | 50 | 0 | 0.0 | 2.0 | 0.00 | 0.00 | 0.00 | 55 | 1032.1 |
| 20260906064554 | 50 | 0 | 0.0 | 2.0 | 0.00 | 0.00 | 0.00 | 54 | 1032.1 |
| 20260906063053 | 50 | 0 | 0.0 | 0.0 | 0.00 | 0.00 | 0.00 | 58 | 1032.2 |
| 20260906061550 | 50 | 0 | 0.0 | 0.0 | 0.00 | 0.00 | 0.00 | 60 | 1032.1 |
| 20260906060114 | 50 | 0 | 0.0 | 0.0 | 0.00 | 0.00 | 0.00 | 62 | 1032.3 |
| 20260906054553 | 50 | 0 | 0.0 | 0.0 | 0.00 | 0.00 | 0.00 | 61 | 1032.5 |
| 20260906053051 | 51 | 0 | 0.0 | 0.0 | 0.00 | 0.00 | 0.00 | 60 | 1032.5 |
| 20260906051551 | 51 | 0 | 0.0 | 0.0 | 0.00 | 0.00 | 0.00 | 61 | 1032.5 |
| 20260906050101 | 52 | 0 | 0.0 | 0.0 | 0.00 | 0.00 | 0.00 | 60 | 1032.5 |
| 20260906044552 | 52 | 0 | 0.0 | 0.0 | 0.00 | 0.00 | 0.00 | 58 | 1032.6 |
| 20260906043050 | 52 | 0 | 0.0 | 1.0 | 0.00 | 0.00 | 0.00 | 58 | 1032.6 |
| 20260906041547 | 52 | 0 | 0.0 | 0.0 | 0.00 | 0.00 | 0.00 | 58 | 1032.4 |
| 20260906040058 | 52 | 0 | 0.0 | 0.0 | 0.00 | 0.00 | 0.00 | 57 | 1032.2 |
| 20260906034601 | 52 | 0 | 0.0 | 0.0 | 0.00 | 0.00 | 0.00 | 56 | 1032.5 |
| 20260906033049 | 53 | 0 | 0.0 | 0.0 | 0.00 | 0.00 | 0.00 | 54 | 1032.5 |
| 20260906031556 | 54 | 0 | 0.0 | 0.0 | 0.00 | 0.00 | 0.00 | 54 | 1032.4 |
| 20260906030054 | 54 | 0 | 0.0 | 0.0 | 0.00 | 0.00 | 0.00 | 52 | 1032.2 |
| 20260906024553 | 55 | 0 | 0.0 | 0.0 | 0.00 | 0.00 | 0.00 | 50 | 1032.1 |
| 20260906023107 | 56 | 0 | 0.0 | 0.0 | 0.00 | 0.00 | 0.00 | 50 | 1032.1 |
| 20260906021557 | 57 | 0 | 0.0 | 0.0 | 0.00 | 0.00 | 0.00 | 47 | 1031.9 |
| 20260906020057 | 58 | 0 | 0.0 | 0.0 | 0.00 | 0.00 | 0.00 | 45 | 1031.8 |
| 20260906014607 | 60 | 0 | 0.0 | 4.0 | 0.00 | 0.00 | 0.00 | 41 | 1031.8 |
| 20260906013102 | 62 | 0 | 0.0 | 4.0 | 0.00 | 0.00 | 0.00 | 39 | 1031.8 |
| 20260906011550 | 63 | 0 | 0.0 | 6.0 | 0.00 | 0.00 | 0.00 | 36 | 1031.7 |
| 20260906010050 | 64 | 0 | 2.0 | 9.0 | 0.00 | 0.00 | 0.00 | 36 | 1031.8 |
| 20260906004545 | 64 | 0 | 0.0 | 8.0 | 0.00 | 0.00 | 0.00 | 35 | 1031.8 |
| 20260906003050 | 64 | 176 | 1.0 | 6.0 | 0.00 | 0.00 | 0.00 | 35 | 1031.8 |
| 20260906001547 | 65 | 0 | 2.0 | 10.0 | 0.00 | 0.00 | 0.00 | 34 | 1031.8 |
| 20260906000109 | 66 | 360 | 0.0 | 11.0 | 0.00 | 0.00 | 0.00 | 35 | 1031.7 |
| 20260905234553 | 67 | 360 | 3.0 | 12.0 | 0.00 | 0.00 | 0.00 | 34 | 1031.6 |
| 20260905233050 | 68 | 0 | 2.0 | 11.0 | 0.00 | 0.00 | 0.00 | 33 | 1031.9 |
| 20260905231552 | 69 | 360 | 2.0 | 11.0 | 0.00 | 0.00 | 0.00 | 33 | 1031.7 |